Time;durP1;ratioP1;P1;durP2;ratioP2;P2;SDS_P1;SDS_P2;PMS_P1;PMS_P2;Temp;Humidity;BMP_temperature;BMP_pressure;BME280_temperature;BME280_humidity;BME280_pressure;Samples;Min_cycle;Max_cycle;Signal;HPM_P1;HPM_P2
2022/02/15 00:02:38;;;;;;;8.07;6.07;;;;;;;8.20;80.97;99396.56;10312713;28;20390;-65
2022/02/15 00:07:39;;;;;;;9.05;6.32;;;;;;;8.21;81.59;99403.53;10315011;28;20069;-62
2022/02/15 00:12:41;;;;;;;8.38;6.93;;;;;;;8.21;81.46;99404.38;10311657;28;20057;-63
2022/02/15 00:17:42;;;;;;;8.95;7.03;;;;;;;8.16;82.00;99403.09;10313278;28;20052;-64
2022/02/15 00:22:44;;;;;;;8.85;6.97;;;;;;;8.26;81.49;99411.94;10313753;28;20045;-63
2022/02/15 00:27:45;;;;;;;8.02;7.00;;;;;;;8.13;80.26;99349.34;10309220;28;20054;-63
2022/02/15 00:32:47;;;;;;;8.05;6.22;;;;;;;8.43;80.11;99403.38;10312596;28;20057;-62
2022/02/15 00:37:48;;;;;;;6.70;6.00;;;;;;;8.40;80.11;99414.25;10309122;28;20113;-63
2022/02/15 00:42:50;;;;;;;8.18;6.57;;;;;;;8.39;80.16;99420.56;10308521;28;20057;-64
2022/02/15 00:47:51;;;;;;;7.15;6.55;;;;;;;8.28;81.11;99425.91;10310386;28;20072;-63
2022/02/15 00:52:52;;;;;;;8.93;7.97;;;;;;;8.25;81.13;99421.69;10315520;28;20058;-63
2022/02/15 00:57:54;;;;;;;8.20;7.05;;;;;;;8.05;82.03;99406.63;10317841;28;20060;-63
2022/02/15 01:02:55;;;;;;;10.27;7.88;;;;;;;8.10;82.42;99425.63;10317534;28;20058;-64
2022/02/15 01:07:57;;;;;;;11.05;7.88;;;;;;;8.01;82.96;99429.88;10315944;28;20528;-63
2022/02/15 01:12:58;;;;;;;10.57;8.02;;;;;;;8.04;82.97;99428.81;10319074;28;20046;-62
2022/02/15 01:17:59;;;;;;;8.90;7.78;;;;;;;8.08;82.53;99431.06;10316885;28;20710;-63
2022/02/15 01:23:01;;;;;;;8.65;7.63;;;;;;;8.04;82.73;99434.94;10319083;28;20089;-63
2022/02/15 01:28:04;;;;;;;8.95;8.15;;;;;;;7.97;82.62;99429.31;10319993;28;20615;-62
2022/02/15 01:33:05;;;;;;;8.98;8.07;;;;;;;7.98;83.36;99424.84;10319551;28;20060;-62
2022/02/15 01:38:08;;;;;;;9.30;8.35;;;;;;;8.07;82.64;99433.84;10315799;28;20140;-61
2022/02/15 01:43:09;;;;;;;9.73;8.75;;;;;;;8.01;83.01;99432.53;10314510;28;20688;-63
2022/02/15 01:48:11;;;;;;;12.13;8.95;;;;;;;7.96;83.06;99427.63;10317482;28;20053;-63
2022/02/15 01:53:12;;;;;;;9.77;8.90;;;;;;;8.04;82.73;99434.94;10314541;28;20497;-62
2022/02/15 01:58:14;;;;;;;11.07;8.93;;;;;;;7.91;83.09;99419.22;10315786;28;20054;-62
2022/02/15 02:03:15;;;;;;;10.63;9.45;;;;;;;7.93;83.37;99419.94;10315937;28;20053;-62
2022/02/15 02:08:21;;;;;;;13.38;10.25;;;;;;;7.99;83.23;99423.88;10317361;28;20057;-62
2022/02/15 02:13:25;;;;;;;11.45;10.10;;;;;;;7.89;82.70;99420.31;10312905;28;20046;-62
2022/02/15 02:18:26;;;;;;;10.85;9.75;;;;;;;7.78;82.96;99403.47;10316502;28;20062;-63
2022/02/15 02:23:28;;;;;;;10.23;9.23;;;;;;;7.87;83.12;99417.78;10310379;28;20054;-63
2022/02/15 02:28:31;;;;;;;12.23;11.00;;;;;;;7.72;83.67;99398.69;10308944;28;20060;-62
2022/02/15 02:33:33;;;;;;;11.80;10.32;;;;;;;7.78;84.12;99407.94;10311666;28;20047;-62
2022/02/15 02:38:34;;;;;;;11.73;10.63;;;;;;;7.80;83.68;99406.00;10306555;28;20064;-63
2022/02/15 02:43:35;;;;;;;12.25;10.95;;;;;;;7.71;83.58;99401.47;10314246;28;20640;-62
2022/02/15 02:48:41;;;;;;;12.65;11.45;;;;;;;7.82;83.36;99408.53;10309328;28;20054;-63
2022/02/15 02:53:43;;;;;;;13.30;11.70;;;;;;;7.90;83.02;99406.94;10310562;28;20046;-62
2022/02/15 02:58:44;;;;;;;11.73;10.63;;;;;;;7.95;82.68;99435.69;10314012;28;20765;-63
2022/02/15 03:03:45;;;;;;;13.43;11.57;;;;;;;7.89;82.86;99437.03;10317125;28;20728;-62
2022/02/15 03:08:47;;;;;;;12.73;11.48;;;;;;;7.93;82.54;99429.69;10315384;28;20084;-63
2022/02/15 03:13:48;;;;;;;11.70;10.52;;;;;;;7.82;82.51;99405.88;10312568;28;20059;-61
2022/02/15 03:18:50;;;;;;;12.60;11.35;;;;;;;7.77;82.27;99433.59;10310106;28;20160;-61
2022/02/15 03:23:52;;;;;;;9.50;8.38;;;;;;;7.60;83.02;99428.84;10311150;28;20049;-62
2022/02/15 03:28:54;;;;;;;10.07;9.07;;;;;;;7.47;83.17;99433.44;10309278;28;20050;-63
2022/02/15 03:33:55;;;;;;;10.00;8.68;;;;;;;7.35;83.57;99433.44;10306987;28;21081;-62
2022/02/15 03:38:56;;;;;;;8.98;7.78;;;;;;;7.49;82.76;99445.59;10313311;28;20742;-62
2022/02/15 03:43:58;;;;;;;9.10;8.10;;;;;;;7.50;82.18;99444.63;10311997;28;20078;-63
2022/02/15 03:48:59;;;;;;;8.57;7.65;;;;;;;7.49;81.50;99450.03;10313083;28;20216;-62
2022/02/15 03:54:01;;;;;;;8.50;7.53;;;;;;;7.58;81.64;99465.19;10311229;28;20054;-62
2022/02/15 03:59:04;;;;;;;8.75;7.88;;;;;;;7.67;80.38;99463.59;10309323;28;20050;-62
2022/02/15 04:04:07;;;;;;;10.48;7.97;;;;;;;7.66;80.43;99468.06;10312755;28;20046;-62
2022/02/15 04:09:09;;;;;;;9.07;8.18;;;;;;;7.65;80.95;99476.16;10310225;28;20737;-62
2022/02/15 04:14:10;;;;;;;9.18;8.27;;;;;;;7.69;80.58;99478.41;10310600;28;20054;-62
2022/02/15 04:19:11;;;;;;;10.52;8.27;;;;;;;7.65;81.01;99482.28;10310184;28;20056;-63
2022/02/15 04:24:13;;;;;;;8.25;7.35;;;;;;;7.52;80.90;99477.13;10310442;28;20066;-62
2022/02/15 04:29:14;;;;;;;11.13;8.68;;;;;;;7.49;81.38;99476.53;10322235;28;20073;-63
2022/02/15 04:34:15;;;;;;;10.07;8.38;;;;;;;7.75;80.70;99493.81;10321432;28;20469;-62
2022/02/15 04:39:17;;;;;;;8.73;7.82;;;;;;;7.71;80.71;99502.97;10316208;28;20054;-63
2022/02/15 04:44:18;;;;;;;11.55;7.55;;;;;;;7.75;80.73;99492.97;10318058;28;20050;-62
2022/02/15 04:49:20;;;;;;;8.35;7.53;;;;;;;7.78;80.63;99509.47;10320480;28;20049;-63
2022/02/15 04:54:22;;;;;;;10.80;9.25;;;;;;;7.79;80.29;99503.22;10317453;28;20632;-63
2022/02/15 04:59:23;;;;;;;8.68;7.70;;;;;;;7.75;80.81;99528.25;10321210;28;20089;-66
2022/02/15 05:09:47;;;;;;;9.98;7.53;;;;;;;7.72;80.59;99536.44;10316087;28;20046;-63
2022/02/15 05:14:48;;;;;;;8.63;7.70;;;;;;;7.70;80.97;99526.94;10315609;28;20904;-62
2022/02/15 05:19:50;;;;;;;8.43;7.50;;;;;;;7.78;81.11;99530.66;10316855;28;20053;-63
2022/02/15 05:24:52;;;;;;;8.57;7.57;;;;;;;7.71;80.87;99524.16;10315797;28;20046;-63
2022/02/15 05:29:53;;;;;;;10.98;7.93;;;;;;;7.77;80.76;99531.63;10314591;28;20042;-62
2022/02/15 05:34:54;;;;;;;9.88;7.53;;;;;;;7.73;80.63;99516.94;10317306;28;20527;-63
2022/02/15 05:39:56;;;;;;;8.45;7.45;;;;;;;7.86;80.38;99537.16;10315182;28;20056;-63
2022/02/15 05:44:57;;;;;;;10.20;8.77;;;;;;;7.83;80.96;99532.09;10318045;28;20058;-64
2022/02/15 05:55:19;;;;;;;9.63;7.95;;;;;;;7.68;81.89;99555.38;10299546;28;20056;-63
2022/02/15 06:00:20;;;;;;;8.90;8.00;;;;;;;7.56;81.73;99546.59;10339024;28;20060;-64
2022/02/15 06:05:22;;;;;;;10.43;8.85;;;;;;;7.70;82.16;99564.88;10342809;28;20049;-64
2022/02/15 06:10:23;;;;;;;9.00;8.00;;;;;;;7.71;81.64;99557.78;10344163;28;20056;-64
2022/02/15 06:15:30;;;;;;;9.40;7.85;;;;;;;7.72;81.92;99578.84;10342668;28;20060;-65
2022/02/15 06:20:31;;;;;;;9.13;8.18;;;;;;;7.66;82.12;99567.91;10332561;28;20046;-63
2022/02/15 06:25:33;;;;;;;8.93;7.85;;;;;;;7.71;81.83;99571.84;10318040;28;20069;-64
2022/02/15 06:30:34;;;;;;;11.45;9.15;;;;;;;7.66;82.03;99579.34;10309591;28;20045;-66
2022/02/15 06:35:35;;;;;;;10.10;8.77;;;;;;;7.63;82.30;99590.16;10311993;28;20054;-64
2022/02/15 06:40:37;;;;;;;9.82;8.27;;;;;;;7.65;81.85;99585.56;10317744;28;20108;-64
2022/02/15 06:45:38;;;;;;;11.45;8.63;;;;;;;7.72;81.41;99594.72;10310710;28;20057;-64
2022/02/15 06:50:40;;;;;;;11.70;8.63;;;;;;;7.66;81.96;99595.22;10314353;28;20058;-64
2022/02/15 06:55:41;;;;;;;9.68;8.68;;;;;;;7.71;81.97;99611.59;10318381;28;20057;-64
2022/02/15 07:00:42;;;;;;;12.55;10.02;;;;;;;7.70;81.84;99644.34;10309942;28;20050;-63
2022/02/15 07:05:44;;;;;;;9.70;8.73;;;;;;;7.60;82.29;99643.38;10308146;28;20426;-64
2022/02/15 07:10:46;;;;;;;9.75;8.77;;;;;;;7.71;83.10;99645.19;10306273;28;20049;-60
2022/02/15 07:15:49;;;;;;;13.10;10.75;;;;;;;7.65;82.13;99657.09;10311926;28;20565;-62
2022/02/15 07:20:50;;;;;;;10.40;9.25;;;;;;;7.71;81.65;99677.81;10306908;28;20061;-59
2022/02/15 07:25:51;;;;;;;11.73;9.10;;;;;;;7.67;81.46;99663.16;10289583;28;20046;-61
2022/02/15 07:30:53;;;;;;;11.32;8.98;;;;;;;7.62;81.81;99673.25;10296365;28;20050;-61
2022/02/15 07:35:54;;;;;;;11.93;8.88;;;;;;;7.68;81.77;99675.41;10302340;28;20441;-61
2022/02/15 07:40:56;;;;;;;10.30;9.10;;;;;;;7.60;82.12;99683.94;10295973;28;20051;-60
2022/02/15 07:45:57;;;;;;;11.25;8.95;;;;;;;7.69;82.13;99689.50;10304974;28;20058;-62
2022/02/15 07:50:58;;;;;;;10.18;9.07;;;;;;;7.71;81.59;99703.47;10309932;28;20584;-62
2022/02/15 07:56:00;;;;;;;9.23;7.90;;;;;;;7.74;81.54;99703.25;10305563;28;20108;-62
2022/02/15 08:01:01;;;;;;;9.05;7.35;;;;;;;7.90;80.89;99718.81;10297322;28;20714;-61
2022/02/15 08:06:03;;;;;;;7.80;6.90;;;;;;;7.98;80.34;99726.97;10307995;28;20050;-62
2022/02/15 08:11:04;;;;;;;8.40;6.57;;;;;;;8.05;80.28;99737.97;10300367;28;20061;-62
2022/02/15 08:16:11;;;;;;;7.53;6.68;;;;;;;8.02;80.34;99730.25;10303310;28;20061;-61
2022/02/15 08:21:13;;;;;;;7.80;6.68;;;;;;;8.06;81.13;99751.09;10306818;28;20053;-62
2022/02/15 08:26:34;;;;;;;7.63;6.93;;;;;;;8.08;80.88;99733.25;10302781;28;20125;-61
2022/02/15 08:31:36;;;;;;;9.75;8.75;;;;;;;8.19;81.45;99747.47;10308864;28;20157;-62
2022/02/15 08:36:37;;;;;;;9.13;8.23;;;;;;;8.30;80.83;99758.94;10303714;28;20053;-62
2022/02/15 08:41:39;;;;;;;12.20;9.68;;;;;;;8.47;80.68;99764.75;10307780;28;20180;-62
2022/02/15 08:46:40;;;;;;;12.18;9.85;;;;;;;8.55;80.04;99761.47;10299724;28;20124;-62
2022/02/15 08:51:42;;;;;;;9.95;8.95;;;;;;;8.38;80.73;99745.06;10305953;28;20053;-62
2022/02/15 08:56:43;;;;;;;12.07;9.73;;;;;;;8.63;80.37;99764.34;10301663;28;20050;-61
2022/02/15 09:01:44;;;;;;;11.18;8.82;;;;;;;8.66;79.55;99764.09;10299584;28;20148;-61
2022/02/15 09:06:51;;;;;;;10.97;9.03;;;;;;;9.45;76.34;99766.50;10299336;28;20070;-61
2022/02/15 09:11:53;;;;;;;11.35;8.43;;;;;;;9.47;75.50;99780.50;10305737;28;20058;-62
2022/02/15 09:16:54;;;;;;;12.40;8.05;;;;;;;9.42;74.78;99795.16;10316589;28;20049;-62
2022/02/15 09:21:56;;;;;;;10.40;8.57;;;;;;;9.38;75.01;99794.53;10304869;28;20074;-62
2022/02/15 09:26:58;;;;;;;8.20;7.40;;;;;;;9.54;74.14;99804.75;10338212;28;20046;-62
2022/02/15 09:31:59;;;;;;;7.60;6.72;;;;;;;9.61;74.09;99802.41;10316861;28;20507;-61
2022/02/15 09:37:01;;;;;;;8.60;7.07;;;;;;;9.72;72.53;99799.72;10311599;28;20064;-61
2022/02/15 09:42:02;;;;;;;8.20;6.07;;;;;;;10.09;70.79;99812.53;10325468;28;20051;-60
2022/02/15 09:47:05;;;;;;;8.23;7.25;;;;;;;9.96;71.04;99827.84;10309682;28;20514;-63
2022/02/15 09:52:06;;;;;;;9.32;7.95;;;;;;;9.52;72.57;99830.63;10307444;28;20221;-60
2022/02/15 09:57:09;;;;;;;9.13;6.70;;;;;;;9.47;72.12;99843.41;10304270;28;20685;-62
2022/02/15 10:02:17;;;;;;;6.03;5.30;;;;;;;9.33;72.21;99841.91;10311640;28;20046;-62
2022/02/15 10:07:18;;;;;;;7.88;5.13;;;;;;;9.14;72.50;99827.47;10312957;28;20134;-62
2022/02/15 10:12:20;;;;;;;7.32;5.85;;;;;;;9.37;72.48;99853.97;10308870;28;20061;-63
2022/02/15 10:17:23;;;;;;;6.63;5.70;;;;;;;9.31;72.39;99843.84;10315305;28;20054;-62
2022/02/15 10:22:25;;;;;;;7.00;5.50;;;;;;;9.49;72.34;99847.66;10319911;28;20251;-60
2022/02/15 10:27:29;;;;;;;8.57;4.75;;;;;;;9.56;71.01;99850.63;10312035;28;20137;-59
2022/02/15 10:32:30;;;;;;;7.38;5.32;;;;;;;9.87;70.19;99853.41;10328167;28;20057;-61
2022/02/15 10:37:33;;;;;;;4.95;3.88;;;;;;;9.74;69.67;99866.84;10302631;28;20050;-61
2022/02/15 10:42:37;;;;;;;7.13;5.32;;;;;;;9.50;70.75;99862.63;10303975;28;20220;-61
2022/02/15 10:47:42;;;;;;;6.53;5.00;;;;;;;9.39;70.43;99841.41;10304992;28;20061;-61
2022/02/15 10:52:44;;;;;;;6.00;4.75;;;;;;;9.30;70.71;99858.09;10321782;28;20743;-62
2022/02/15 10:57:46;;;;;;;6.35;4.82;;;;;;;9.48;70.51;99872.50;10302276;28;20156;-62
2022/02/15 11:02:49;;;;;;;6.63;4.90;;;;;;;9.63;69.88;99872.22;10304244;28;20061;-62
2022/02/15 11:07:51;;;;;;;4.38;3.70;;;;;;;9.82;68.04;99852.94;10305067;28;20050;-62
2022/02/15 11:13:01;;;;;;;6.15;4.22;;;;;;;10.06;66.40;99877.47;10311527;28;20060;-62
2022/02/15 11:18:07;;;;;;;7.25;4.15;;;;;;;9.90;65.41;99834.53;10312167;28;20065;-62
2022/02/15 11:23:16;;;;;;;4.80;2.92;;;;;;;10.13;64.29;99872.47;10299427;28;20215;-61
2022/02/15 11:28:20;;;;;;;5.43;2.33;;;;;;;10.24;62.77;99858.28;10299215;28;20498;-63
2022/02/15 11:33:21;;;;;;;3.33;1.75;;;;;;;14.46;49.24;99865.94;10309883;28;20057;-64
2022/02/15 11:38:24;;;;;;;1.95;1.30;;;;;;;16.57;41.30;99868.53;10303129;28;20053;-62
2022/02/15 11:43:25;;;;;;;1.77;1.20;;;;;;;16.86;40.46;99859.03;10304485;28;20095;-63
2022/02/15 11:48:39;;;;;;;1.83;0.65;;;;;;;16.52;38.09;99858.31;10298730;28;20084;-63
2022/02/15 11:53:40;;;;;;;2.17;0.95;;;;;;;17.30;36.02;99845.91;10303469;28;20109;-62
2022/02/15 11:58:46;;;;;;;1.95;0.90;;;;;;;17.83;35.28;99855.97;10306325;28;20544;-63
2022/02/15 12:03:49;;;;;;;2.35;0.50;;;;;;;23.86;27.68;99838.34;10297875;28;20062;-62
2022/02/15 12:08:58;;;;;;;2.03;0.57;;;;;;;26.23;23.25;99848.66;10303116;28;20097;-63
2022/02/15 12:14:09;;;;;;;2.00;0.43;;;;;;;24.96;22.98;99842.31;10299491;28;20152;-62
2022/02/15 12:19:20;;;;;;;1.05;0.52;;;;;;;20.84;28.61;99854.91;10303360;28;20077;-62
2022/02/15 12:24:23;;;;;;;3.28;1.10;;;;;;;19.69;30.61;99856.91;10306224;28;20133;-60
2022/02/15 12:29:26;;;;;;;1.83;0.90;;;;;;;23.35;27.65;99854.53;10307116;28;20052;-59
2022/02/15 12:34:28;;;;;;;3.38;1.40;;;;;;;21.15;29.18;99859.00;10297421;28;20166;-60
2022/02/15 12:39:37;;;;;;;1.67;1.40;;;;;;;21.73;29.11;99849.59;10306153;28;20933;-61
2022/02/15 12:44:39;;;;;;;3.60;1.10;;;;;;;18.14;33.65;99857.78;10299365;28;20065;-60
2022/02/15 12:49:40;;;;;;;1.85;1.10;;;;;;;15.09;38.79;99838.97;10309158;28;20081;-61
2022/02/15 12:54:57;;;;;;;2.90;1.10;;;;;;;13.81;42.55;99860.13;10305309;28;20168;-60
2022/02/15 13:00:00;;;;;;;2.38;0.93;;;;;;;12.78;44.29;99847.81;10313692;28;20662;-61
2022/02/15 13:05:03;;;;;;;2.08;0.80;;;;;;;12.05;43.73;99860.97;10307132;28;20049;-63
2022/02/15 13:10:04;;;;;;;3.42;0.60;;;;;;;11.94;44.47;99853.97;10309790;28;20711;-63
2022/02/15 13:15:09;;;;;;;0.93;0.52;;;;;;;11.57;45.05;99831.47;10322437;28;20149;-63
2022/02/15 13:20:11;;;;;;;;;;;;;;;11.98;43.10;99842.00;10309721;28;20053;-64
2022/02/15 13:25:14;;;;;;;2.40;0.93;;;;;;;13.66;41.36;99841.94;10330747;28;19925;-61
2022/02/15 13:30:26;;;;;;;1.20;0.70;;;;;;;13.84;38.90;99835.72;10339524;28;20065;-62
2022/02/15 13:35:28;;;;;;;2.13;0.70;;;;;;;20.27;29.12;99807.34;10335005;28;20045;-62
2022/02/15 13:40:29;;;;;;;2.75;0.45;;;;;;;18.12;30.59;99816.72;10336586;28;20423;-63
2022/02/15 13:45:32;;;;;;;3.08;0.75;;;;;;;17.26;32.35;99809.66;10337888;28;20380;-63
2022/02/15 13:50:33;;;;;;;1.92;0.40;;;;;;;22.49;23.41;99804.94;10335325;28;20468;-62
2022/02/15 13:55:34;;;;;;;0.63;0.20;;;;;;;22.59;23.41;99816.19;10338476;28;20193;-62
2022/02/15 14:00:36;;;;;;;1.13;0.50;;;;;;;27.18;18.81;99813.84;10337532;28;20072;-60
2022/02/15 14:05:37;;;;;;;0.63;0.15;;;;;;;20.20;25.32;99798.34;10335933;28;20769;-61
2022/02/15 14:10:39;;;;;;;1.63;0.40;;;;;;;20.34;25.47;99812.78;10340824;28;20161;-61
2022/02/15 14:15:43;;;;;;;2.15;0.45;;;;;;;16.65;30.05;99819.31;10341383;28;20061;-63
2022/02/15 14:20:45;;;;;;;1.35;0.35;;;;;;;14.20;34.48;99807.06;10340541;28;20052;-61
2022/02/15 14:25:46;;;;;;;1.50;0.30;;;;;;;13.33;37.55;99803.31;10309560;28;20050;-61
2022/02/15 14:30:49;;;;;;;1.55;0.50;;;;;;;13.34;38.03;99816.56;10313597;28;20775;-61
2022/02/15 14:35:51;;;;;;;1.90;0.63;;;;;;;12.69;40.02;99838.03;10308048;28;20060;-60
2022/02/15 14:40:52;;;;;;;1.40;0.52;;;;;;;12.22;41.60;99851.38;10304741;28;20072;-60
2022/02/15 14:45:54;;;;;;;1.65;0.40;;;;;;;11.78;43.30;99841.16;10306866;28;20611;-62
2022/02/15 14:50:57;;;;;;;1.95;0.35;;;;;;;11.94;43.22;99838.78;10303704;28;20108;-63
2022/02/15 14:56:00;;;;;;;3.00;0.43;;;;;;;11.55;44.43;99830.78;10298351;28;20046;-61
2022/02/15 15:01:01;;;;;;;2.38;0.95;;;;;;;12.48;43.58;99839.09;10310664;28;20049;-62
2022/02/15 15:06:03;;;;;;;2.00;0.90;;;;;;;16.66;34.82;99834.44;10297615;28;20136;-61
2022/02/15 15:11:04;;;;;;;2.72;0.93;;;;;;;21.19;26.65;99830.47;10294834;28;20053;-64
2022/02/15 15:16:06;;;;;;;2.72;1.10;;;;;;;21.42;26.83;99839.28;10314860;28;20061;-63
2022/02/15 15:21:08;;;;;;;1.58;0.68;;;;;;;21.24;25.93;99837.97;10335998;28;20060;-63
2022/02/15 15:26:09;;;;;;;3.55;0.90;;;;;;;16.88;31.65;99843.63;10333759;28;20369;-63
2022/02/15 15:31:12;;;;;;;1.50;0.68;;;;;;;14.41;36.24;99846.84;10340610;28;20232;-63
2022/02/15 15:36:18;;;;;;;5.13;1.67;;;;;;;12.99;38.01;99842.22;10340501;28;20060;-63
2022/02/15 15:41:20;;;;;;;2.30;0.45;;;;;;;12.32;38.56;99828.19;10336426;28;20063;-62
2022/02/15 15:46:21;;;;;;;1.80;0.68;;;;;;;11.21;39.81;99814.34;10340454;28;20118;-62
2022/02/15 15:51:23;;;;;;;1.88;0.57;;;;;;;11.26;39.17;99831.63;10332029;28;20061;-61
2022/02/15 15:56:28;;;;;;;3.00;0.35;;;;;;;10.84;39.97;99830.94;10335095;28;20057;-61
2022/02/15 16:01:30;;;;;;;1.92;0.40;;;;;;;10.55;41.29;99824.56;10336729;28;20058;-65
2022/02/15 16:06:34;;;;;;;2.53;0.80;;;;;;;10.35;42.00;99812.97;10334574;28;20069;-61
2022/02/15 16:11:37;;;;;;;1.58;0.70;;;;;;;10.30;42.43;99841.78;10338192;28;20418;-61
2022/02/15 16:16:40;;;;;;;1.75;0.60;;;;;;;10.11;43.68;99836.34;10336615;28;20062;-62
2022/02/15 16:21:41;;;;;;;2.83;0.90;;;;;;;10.00;44.03;99845.25;10338455;28;20057;-60
2022/02/15 16:26:43;;;;;;;2.38;0.70;;;;;;;9.81;44.60;99841.44;10333553;28;20046;-60
2022/02/15 16:31:53;;;;;;;1.52;0.68;;;;;;;9.80;45.12;99846.91;10333802;28;20103;-61
2022/02/15 16:36:54;;;;;;;2.88;1.38;;;;;;;9.58;45.45;99814.16;10334119;28;20041;-61
2022/02/15 16:41:56;;;;;;;3.75;1.20;;;;;;;9.70;45.82;99849.50;10332400;28;20401;-61
2022/02/15 16:46:57;;;;;;;2.45;0.93;;;;;;;9.51;46.10;99832.41;10334358;28;20196;-62
2022/02/15 16:51:58;;;;;;;3.40;1.27;;;;;;;9.40;46.66;99816.53;10334906;28;20128;-60
2022/02/15 16:57:02;;;;;;;1.90;0.73;;;;;;;9.44;46.46;99812.63;10338436;28;20064;-63
2022/02/15 17:02:06;;;;;;;1.33;1.00;;;;;;;9.29;46.97;99790.00;10338187;28;20119;-62
2022/02/15 17:07:08;;;;;;;2.72;1.40;;;;;;;9.17;47.11;99805.97;10332002;28;20049;-59
2022/02/15 17:12:10;;;;;;;5.00;1.40;;;;;;;8.92;46.72;99795.69;10337367;28;20179;-63
2022/02/15 17:17:13;;;;;;;2.47;0.80;;;;;;;8.85;47.12;99812.06;10334303;28;20055;-60
2022/02/15 17:22:14;;;;;;;3.17;1.30;;;;;;;8.77;47.17;99811.84;10332391;28;20140;-63
2022/02/15 17:27:16;;;;;;;1.88;0.90;;;;;;;8.73;47.29;99823.66;10313874;28;20064;-63
2022/02/15 17:32:18;;;;;;;1.75;1.05;;;;;;;8.78;47.32;99805.59;10297674;28;20048;-63
2022/02/15 17:37:19;;;;;;;5.25;1.08;;;;;;;8.62;47.31;99816.56;10309353;28;20045;-63
2022/02/15 17:42:22;;;;;;;2.10;0.90;;;;;;;8.56;48.07;99821.53;10309819;28;20054;-63
2022/02/15 17:47:23;;;;;;;1.50;0.82;;;;;;;8.48;47.69;99836.25;10306061;28;20058;-63
2022/02/15 17:52:25;;;;;;;4.72;1.52;;;;;;;8.43;47.93;99837.53;10312224;28;20056;-62
2022/02/15 17:57:26;;;;;;;3.22;1.05;;;;;;;8.35;48.24;99840.78;10311379;28;20057;-64
2022/02/15 18:02:28;;;;;;;6.47;1.52;;;;;;;8.16;48.49;99830.75;10314487;28;20164;-61
2022/02/15 18:07:29;;;;;;;3.35;1.75;;;;;;;8.21;48.79;99833.03;10304094;28;20061;-61
2022/02/15 18:12:32;;;;;;;3.00;1.10;;;;;;;8.11;48.67;99839.06;10309249;28;20058;-60
2022/02/15 18:17:33;;;;;;;3.08;0.93;;;;;;;8.08;49.88;99846.41;10314512;28;20049;-61
2022/02/15 18:22:35;;;;;;;3.28;1.20;;;;;;;8.16;49.98;99840.50;10305023;28;20058;-60
2022/02/15 18:27:37;;;;;;;4.45;1.92;;;;;;;8.22;49.45;99851.47;10309628;28;20054;-62
2022/02/15 18:32:38;;;;;;;2.33;1.20;;;;;;;8.24;48.83;99848.72;10305541;28;20057;-61
2022/02/15 18:37:40;;;;;;;2.90;0.80;;;;;;;8.13;49.12;99847.72;10306281;28;20412;-61
2022/02/15 18:42:41;;;;;;;3.53;0.98;;;;;;;8.23;49.12;99852.34;10310640;28;20053;-62
2022/02/15 18:47:43;;;;;;;2.70;0.98;;;;;;;8.26;49.65;99860.06;10301870;28;20057;-62
2022/02/15 18:52:45;;;;;;;2.88;0.93;;;;;;;8.09;49.43;99859.53;10304301;28;20081;-62
2022/02/15 18:57:46;;;;;;;1.88;1.00;;;;;;;8.26;49.64;99865.38;10297235;28;21004;-61
2022/02/15 19:02:50;;;;;;;3.25;1.20;;;;;;;8.22;49.52;99851.47;10308668;28;20050;-61
2022/02/15 19:07:52;;;;;;;3.05;1.20;;;;;;;8.31;49.37;99857.88;10301764;28;20184;-61
2022/02/15 19:12:54;;;;;;;3.33;1.60;;;;;;;8.16;50.21;99840.50;10303434;28;20135;-61
2022/02/15 19:17:55;;;;;;;4.05;1.80;;;;;;;8.24;50.46;99854.88;10306602;28;20428;-61
2022/02/15 19:22:57;;;;;;;4.15;1.92;;;;;;;8.26;50.84;99846.81;10302700;28;20141;-60
2022/02/15 19:27:59;;;;;;;2.35;1.30;;;;;;;8.16;50.98;99845.81;10305541;28;20626;-61
2022/02/15 19:33:00;;;;;;;2.60;1.52;;;;;;;8.11;51.38;99807.25;10310623;28;20055;-62
2022/02/15 19:38:02;;;;;;;2.88;0.93;;;;;;;7.99;50.49;99810.84;10308335;28;20054;-61
2022/02/15 19:43:07;;;;;;;2.35;1.75;;;;;;;8.17;52.21;99810.38;10307465;28;20064;-63
2022/02/15 19:48:10;;;;;;;1.92;1.13;;;;;;;8.12;51.51;99814.25;10311794;28;20049;-62
2022/02/15 19:53:12;;;;;;;3.60;1.88;;;;;;;8.18;52.13;99834.13;10342057;28;20073;-62
2022/02/15 19:58:14;;;;;;;4.68;1.58;;;;;;;8.16;52.45;99830.75;10320907;28;20050;-62
2022/02/15 20:03:15;;;;;;;2.30;1.23;;;;;;;7.95;52.33;99820.81;10313422;28;20050;-62
2022/02/15 20:08:17;;;;;;;3.45;1.05;;;;;;;7.70;53.02;99790.06;10309259;28;20045;-61
2022/02/15 20:13:18;;;;;;;3.33;1.00;;;;;;;7.86;53.41;99818.03;10310412;28;20046;-60
2022/02/15 20:18:20;;;;;;;3.05;1.13;;;;;;;7.69;53.66;99796.31;10309470;28;20445;-61
2022/02/15 20:23:22;;;;;;;4.60;1.27;;;;;;;7.68;53.82;99788.50;10308295;28;20053;-61
2022/02/15 20:28:23;;;;;;;3.90;1.17;;;;;;;7.77;54.06;99806.34;10310757;28;20191;-61
2022/02/15 20:33:25;;;;;;;2.65;1.38;;;;;;;7.76;53.84;99796.69;10303691;28;20275;-62
2022/02/15 20:38:27;;;;;;;5.93;1.90;;;;;;;7.77;53.99;99799.22;10309250;28;20077;-60
2022/02/15 20:43:29;;;;;;;3.13;1.00;;;;;;;7.75;54.17;99795.84;10317104;28;20133;-63
2022/02/15 20:48:30;;;;;;;2.22;1.45;;;;;;;7.83;54.09;99807.69;10340401;28;20057;-61
2022/02/15 20:53:31;;;;;;;4.28;1.40;;;;;;;7.76;54.63;99802.84;10339195;28;20107;-63
2022/02/15 20:58:33;;;;;;;5.82;1.50;;;;;;;7.58;54.98;99772.44;10336359;28;20061;-62
2022/02/15 21:03:35;;;;;;;2.25;1.67;;;;;;;7.63;55.54;99775.59;10344231;28;20798;-64
2022/02/15 21:08:38;;;;;;;3.47;1.30;;;;;;;7.72;55.58;99782.84;10352040;28;20786;-64
2022/02/15 21:13:40;;;;;;;3.13;1.58;;;;;;;7.79;55.92;99784.06;10359531;28;20129;-63
2022/02/15 21:18:41;;;;;;;3.03;1.55;;;;;;;7.84;56.09;99789.00;10358358;28;20159;-64
2022/02/15 21:23:43;;;;;;;3.53;1.80;;;;;;;7.77;56.61;99779.84;10354918;28;20095;-64
2022/02/15 21:28:44;;;;;;;3.38;1.33;;;;;;;7.68;56.58;99764.66;10353506;28;20060;-64
2022/02/15 21:33:47;;;;;;;3.97;1.63;;;;;;;7.63;57.11;99761.47;10355779;28;20518;-65
2022/02/15 21:38:48;;;;;;;3.83;1.50;;;;;;;7.67;58.93;99755.88;10357662;28;20141;-65
2022/02/15 21:43:50;;;;;;;3.53;1.38;;;;;;;7.68;60.39;99757.53;10354924;28;20532;-64
2022/02/15 21:48:51;;;;;;;4.28;1.70;;;;;;;7.62;62.47;99763.28;10354633;28;20070;-64
2022/02/15 21:53:53;;;;;;;5.15;1.80;;;;;;;7.58;63.41;99751.25;10356618;28;22824;-65
2022/02/15 21:58:54;;;;;;;3.45;1.70;;;;;;;7.57;65.29;99745.09;10358240;28;20045;-65
2022/02/15 22:03:55;;;;;;;3.20;1.77;;;;;;;7.36;66.95;99715.81;10352697;28;20052;-64
2022/02/15 22:08:57;;;;;;;3.92;1.98;;;;;;;7.29;67.57;99711.09;10350711;28;21062;-65
2022/02/15 22:13:58;;;;;;;4.72;2.90;;;;;;;7.34;69.17;99717.75;10358848;28;20253;-64
2022/02/15 22:19:06;;;;;;;4.28;2.38;;;;;;;7.05;70.04;99696.91;10354877;28;20053;-64
2022/02/15 22:24:07;;;;;;;3.33;1.80;;;;;;;7.07;70.69;99697.66;10357436;28;20049;-65
2022/02/15 22:29:09;;;;;;;3.80;2.55;;;;;;;7.16;71.70;99704.09;10355337;28;20064;-65
2022/02/15 22:34:10;;;;;;;4.85;1.98;;;;;;;7.13;70.77;99688.44;10355567;28;20128;-65
2022/02/15 22:39:12;;;;;;;3.30;1.80;;;;;;;7.10;71.80;99671.91;10351066;28;20138;-65
2022/02/15 22:44:13;;;;;;;3.83;1.50;;;;;;;6.96;72.45;99670.31;10360124;28;20050;-61
2022/02/15 22:54:45;;;;;;;2.55;2.35;;;;;;;6.93;73.33;99665.25;10347740;28;20055;-63
2022/02/15 22:59:47;;;;;;;3.80;1.98;;;;;;;6.77;74.51;99633.78;10350596;28;20240;-63
2022/02/15 23:17:59;;;;;;;7.10;2.40;;;;;;;6.82;74.56;99663.41;10351808;28;20061;-63
2022/02/15 23:20:43;;;;;;;4.80;2.00;;;;;;;6.82;75.52;99655.47;10349238;28;20069;-63
2022/02/15 23:25:46;;;;;;;3.25;2.00;;;;;;;6.80;74.80;99645.00;10350560;28;20046;-63
2022/02/15 23:30:48;;;;;;;5.60;1.90;;;;;;;6.72;75.68;99644.72;10350226;28;20366;-63
2022/02/15 23:35:49;;;;;;;4.63;2.00;;;;;;;6.63;76.11;99633.00;10351322;28;20049;-63
2022/02/15 23:40:50;;;;;;;3.38;1.77;;;;;;;6.45;76.55;99618.50;10347672;28;20189;-64
2022/02/15 23:45:52;;;;;;;3.40;1.67;;;;;;;6.49;75.92;99596.19;10346670;28;20053;-63
2022/02/15 23:50:54;;;;;;;9.25;2.05;;;;;;;6.69;75.60;99608.75;10351604;28;20215;-63
2022/02/15 23:55:55;;;;;;;7.18;1.60;;;;;;;6.66;76.28;99595.75;10348697;28;20046;-65
